Inglewood, Florida
Current Conditions -  °F | °C
As of 3:15 PM on Thursday 18 Dec 2014 (Local Time) from KVNC Reporting Station
Clear Clear  
Wind Chill: 66°   Ceiling: Unl
Heat Index: 66°   Visibility: 7mi
Dew Point: 57°   Wind: 8mph
Humidity: 73%   Direction: 300°WNW
Pressure: 30.12"   Gusts: NA
Location:  26.9253°N, 82.3009°W
Report Text: KVNC 182015Z AUTO 30007KT 7SM CLR 19/14 A3012 RMK AO2 TSNO
Loading
Personal Weather Stations






























Interactive Weather Map New forecast layout! Learn more

10-Day Weather Forecast

Advertisements
Track Severe Weather on mobile